Dnipropetrovs'k, Ukraine
Current Conditions -  °F | °C
As of 12:00 PM on Saturday 25 Oct 2014 (Local Time) from UKDD Reporting Station
Clear Clear  
Wind Chill: 25°   Ceiling: Unl
Heat Index: 36°   Visibility: 6mi
Dew Point: 16°   Wind: 20mph
Humidity: 44%   Direction: 70°ENE
Pressure: 30.5"   Gusts: NA
Location:  48.34°N, 34.91°E
Report Text: UKDD 250900Z 07009MPS CAVOK 02/M09 Q1033 08090070 NOSIG
Loading
Personal Weather Stations






























Interactive Weather Map
Tropical Storm Tracking
New forecast layout! Learn more

10-Day Weather Forecast

Advertisements
Track Severe Weather on mobile